createdAt,value
2019-05-22T00:00:30.771Z,-21672.53
2019-05-22T00:03:04.021Z,-21681.81
2019-05-22T00:05:33.008Z,-21696.90
2019-05-22T00:08:05.056Z,-21687.35
2019-05-22T00:10:34.737Z,-21687.63
2019-05-22T00:13:04.647Z,-21664.62
2019-05-22T00:15:33.441Z,-21713.37
2019-05-22T00:18:02.738Z,-21697.32
2019-05-22T00:20:31.551Z,-21735.08
2019-05-22T00:23:03.211Z,-21706.87
2019-05-22T00:25:33.407Z,-21689.98
2019-05-22T00:28:04.165Z,-21706.73
2019-05-22T00:30:33.473Z,-21704.80
2019-05-22T00:33:02.193Z,-21703.69
2019-05-22T00:35:31.455Z,-21665.31
2019-05-22T00:38:01.413Z,-21678.07
2019-05-22T00:40:31.646Z,-21687.49
2019-05-22T00:43:04.105Z,-21669.05
2019-05-22T00:45:31.516Z,-21661.43
2019-05-22T00:48:00.353Z,-21679.87
2019-05-22T00:50:32.853Z,-21697.73
2019-05-22T00:53:03.154Z,-21676.96
2019-05-22T00:55:34.494Z,-21680.28
2019-05-22T00:58:05.961Z,-21702.72
2019-05-22T01:00:36.155Z,-21692.34
2019-05-22T01:03:06.161Z,-21704.38
2019-05-22T01:05:36.447Z,-21656.29
2019-05-22T01:08:06.367Z,-21694.83
2019-05-22T01:10:35.932Z,-21664.75
2019-05-22T01:13:04.380Z,-21680.84
2019-05-22T01:15:32.782Z,-21675.29
2019-05-22T01:18:04.550Z,-21680.56
2019-05-22T01:20:34.525Z,-21698.02
2019-05-22T01:23:02.956Z,-21679.31
2019-05-22T01:25:31.914Z,-21680.01
2019-05-22T01:28:02.053Z,-21655.46
2019-05-22T01:30:41.653Z,-21676.27
2019-05-22T01:33:12.086Z,-21682.64
2019-05-22T01:35:55.000Z,-21674.19
2019-05-22T01:38:23.396Z,-21681.67
2019-05-22T01:41:05.533Z,-21660.45
2019-05-22T01:43:35.156Z,-21699.39
2019-05-22T01:46:03.650Z,-21652.55
2019-05-22T01:48:39.465Z,-21678.34
2019-05-22T01:51:09.654Z,-21695.66
2019-05-22T01:53:40.559Z,-21658.65
2019-05-22T01:56:11.484Z,-21671.00
2019-05-22T01:58:42.398Z,-21672.38
2019-05-22T02:01:16.797Z,-21679.45
2019-05-22T02:03:47.091Z,-21675.02
2019-05-22T02:06:17.879Z,-21709.22
2019-05-22T02:08:53.305Z,-21715.72
2019-05-22T02:11:23.422Z,-21699.12
2019-05-22T02:13:54.937Z,-21689.43
2019-05-22T02:16:26.309Z,-21703.83
2019-05-22T02:18:54.580Z,-21663.92
2019-05-22T02:21:24.001Z,-21695.66
2019-05-22T02:23:52.587Z,-21653.24
2019-05-22T02:26:20.872Z,-21672.53
2019-05-22T02:28:49.583Z,-21657.68
2019-05-22T02:31:20.092Z,-21651.71
2019-05-22T02:34:04.996Z,-21692.06
2019-05-22T02:36:37.174Z,-21684.71
2019-05-22T02:39:13.670Z,-21680.14
2019-05-22T02:41:54.258Z,-21703.83
2019-05-22T02:44:23.700Z,-21704.25
2019-05-22T02:46:53.247Z,-21695.80
2019-05-22T02:49:23.061Z,-21688.32
2019-05-22T02:51:53.778Z,-21738.67
2019-05-22T02:54:22.294Z,-21722.78
2019-05-22T02:56:51.330Z,-21719.74
2019-05-22T02:59:19.752Z,-21709.36
2019-05-22T03:01:48.086Z,-21694.14
2019-05-22T03:04:18.211Z,-21678.07
2019-05-22T03:06:46.493Z,-21704.93
2019-05-22T03:09:18.386Z,-21703.00
2019-05-22T03:11:49.814Z,-21712.13
2019-05-22T03:14:20.101Z,-21693.17
2019-05-22T03:16:52.083Z,-21697.73
2019-05-22T03:19:34.023Z,-21699.26
2019-05-22T03:22:17.421Z,-21674.88
2019-05-22T03:24:46.279Z,-21694.14
2019-05-22T03:27:14.818Z,-21689.98
2019-05-22T03:29:52.400Z,-21696.08
2019-05-22T03:32:21.537Z,-21673.49
2019-05-22T03:34:50.451Z,-21706.87
2019-05-22T03:37:19.556Z,-21688.32
2019-05-22T03:39:48.843Z,-21717.80
2019-05-22T03:42:18.948Z,-21689.29
2019-05-22T03:44:47.553Z,-21709.64
2019-05-22T03:47:16.326Z,-21691.37
2019-05-22T03:49:45.638Z,-21675.98
2019-05-22T03:52:15.056Z,-21680.97
2019-05-22T03:54:43.634Z,-21743.36
2019-05-22T03:57:13.162Z,-21713.65
2019-05-22T03:59:41.441Z,-21721.39
2019-05-22T04:02:10.401Z,-21753.16
2019-05-22T04:04:40.462Z,-21712.27
2019-05-22T04:07:12.116Z,-21696.77
2019-05-22T04:09:42.982Z,-21706.87
2019-05-22T04:12:11.666Z,-21723.75
2019-05-22T04:14:40.299Z,-21733.01
2019-05-22T04:17:10.578Z,-21749.58
2019-05-22T04:19:49.236Z,-21707.70
2019-05-22T04:22:11.145Z,-21717.11
2019-05-22T04:24:42.417Z,-21663.79
2019-05-22T04:27:12.422Z,-21684.71
2019-05-22T04:29:42.285Z,-21672.94
2019-05-22T04:32:14.098Z,-21693.17
2019-05-22T04:34:44.814Z,-21667.80
2019-05-22T04:37:15.051Z,-21684.71
2019-05-22T04:39:46.024Z,-21679.18
2019-05-22T04:42:16.010Z,-21697.18
2019-05-22T04:45:09.001Z,-21659.63
2019-05-22T04:47:37.738Z,-21714.34
2019-05-22T04:50:08.590Z,-21705.77
2019-05-22T04:52:37.109Z,-21670.17
2019-05-22T04:55:09.055Z,-21689.02
2019-05-22T04:57:37.342Z,-21718.63
2019-05-22T05:00:08.809Z,-21700.64
2019-05-22T05:02:38.397Z,-21718.21
2019-05-22T05:05:09.396Z,-21704.11
2019-05-22T05:07:39.270Z,-21698.43
2019-05-22T05:10:09.387Z,-21699.12
2019-05-22T05:12:39.294Z,-21654.49
2019-05-22T05:15:08.052Z,-21720.98
2019-05-22T05:17:36.857Z,-21701.34
2019-05-22T05:20:21.366Z,-21724.99
2019-05-22T05:22:42.088Z,-21704.66
2019-05-22T05:25:10.600Z,-21740.19
2019-05-22T05:27:38.933Z,-21726.09
2019-05-22T05:30:07.342Z,-21688.60
2019-05-22T05:32:36.796Z,-21703.55
2019-05-22T05:35:08.558Z,-21714.34
2019-05-22T05:37:38.074Z,-21676.82
2019-05-22T05:40:09.696Z,-21695.93
2019-05-22T05:42:38.251Z,-21735.35
2019-05-22T05:45:12.776Z,-21700.50
2019-05-22T05:47:39.392Z,-21706.04
2019-05-22T05:50:10.515Z,-21702.72
2019-05-22T05:52:40.410Z,-21709.22
2019-05-22T05:55:09.315Z,-21703.83
2019-05-22T05:57:45.342Z,-21710.75
2019-05-22T06:00:27.793Z,-21689.57
2019-05-22T06:03:02.455Z,-21703.41
2019-05-22T06:05:30.739Z,-21697.32
2019-05-22T06:07:59.017Z,-21690.81
2019-05-22T06:10:31.498Z,-21699.12
2019-05-22T06:13:00.520Z,-21716.98
2019-05-22T06:15:45.809Z,-21687.35
2019-05-22T06:18:14.383Z,-21703.69
2019-05-22T06:20:42.656Z,-21701.75
2019-05-22T06:23:29.398Z,-21684.44
2019-05-22T06:25:58.290Z,-21714.20
2019-05-22T06:28:31.314Z,-21701.47
2019-05-22T06:31:02.098Z,-21724.99
2019-05-22T06:33:32.799Z,-21710.33
2019-05-22T06:36:04.597Z,-21715.04
2019-05-22T06:38:52.264Z,-21648.52
2019-05-22T06:41:23.244Z,-21665.86
2019-05-22T06:44:11.350Z,-21689.29
2019-05-22T06:46:46.284Z,-21677.52
2019-05-22T06:49:35.735Z,-21689.84
2019-05-22T06:52:05.535Z,-21696.90
2019-05-22T06:54:34.061Z,-21684.58
2019-05-22T06:57:02.462Z,-21690.54
2019-05-22T06:59:30.894Z,-21642.14
2019-05-22T07:02:01.654Z,-21669.05
2019-05-22T07:04:30.370Z,-21671.14
2019-05-22T07:06:59.483Z,-21665.31
2019-05-22T07:09:29.499Z,-21679.59
2019-05-22T07:11:58.751Z,-21636.43
2019-05-22T07:14:27.413Z,-21689.57
2019-05-22T07:16:56.105Z,-21695.38
2019-05-22T07:19:24.933Z,-21677.65
2019-05-22T07:21:53.239Z,-21661.98
2019-05-22T07:24:22.679Z,-21652.27
2019-05-22T07:26:52.585Z,-21665.59
2019-05-22T07:29:21.227Z,-21662.68
2019-05-22T07:31:50.222Z,-21647.13
2019-05-22T07:34:18.475Z,-21687.21
2019-05-22T07:36:46.765Z,-21735.21
2019-05-22T07:39:15.290Z,-21717.53
2019-05-22T07:41:43.925Z,-21747.09
2019-05-22T07:44:12.220Z,-21722.91
2019-05-22T07:46:40.570Z,-21712.13
2019-05-22T07:49:08.963Z,-21718.08
2019-05-22T07:51:50.497Z,-21734.11
2019-05-22T07:54:07.425Z,-21716.83
2019-05-22T07:56:36.442Z,-21689.02
2019-05-22T07:59:05.165Z,-21680.56
2019-05-22T08:01:34.515Z,-21683.19
2019-05-22T08:04:04.583Z,-21694.96
2019-05-22T08:06:33.084Z,-21660.87
2019-05-22T08:09:03.778Z,-21705.21
2019-05-22T08:11:32.467Z,-21704.66
2019-05-22T08:14:00.850Z,-21699.54
2019-05-22T08:16:29.281Z,-21733.83
2019-05-22T08:18:57.816Z,-21760.48
2019-05-22T08:21:26.530Z,-21713.92
2019-05-22T08:23:54.850Z,-21709.22
2019-05-22T08:26:24.744Z,-21730.10
2019-05-22T08:28:53.070Z,-21756.06
2019-05-22T08:31:22.949Z,-21769.86
2019-05-22T08:33:51.389Z,-21756.89
2019-05-22T08:36:19.752Z,-21690.81
2019-05-22T08:38:48.095Z,-21694.69
2019-05-22T08:41:19.935Z,-21677.52
2019-05-22T08:44:14.407Z,-21688.87
2019-05-22T08:46:19.904Z,-21696.08
2019-05-22T08:48:49.461Z,-21660.04
2019-05-22T08:51:18.517Z,-21716.98
2019-05-22T08:53:48.735Z,-21690.54
2019-05-22T08:56:17.562Z,-21694.41
2019-05-22T08:58:46.307Z,-21682.50
2019-05-22T09:01:16.119Z,-21673.36
2019-05-22T09:03:45.319Z,-21687.08
2019-05-22T09:06:14.003Z,-21678.90
2019-05-22T09:08:42.351Z,-21674.32
2019-05-22T09:11:11.377Z,-21646.16
2019-05-22T09:13:40.188Z,-21674.32
2019-05-22T09:16:09.476Z,-21663.65
2019-05-22T09:18:37.800Z,-21719.88
2019-05-22T09:21:07.787Z,-21652.55
2019-05-22T09:23:36.796Z,-21659.07
2019-05-22T09:26:06.514Z,-21671.55
2019-05-22T09:28:34.760Z,-21680.28
2019-05-22T09:31:03.162Z,-21696.08
2019-05-22T09:33:32.121Z,-21716.28
2019-05-22T09:36:01.139Z,-21713.79
2019-05-22T09:38:31.036Z,-21709.09
2019-05-22T09:40:59.773Z,-21705.21
2019-05-22T09:43:30.364Z,-21711.30
2019-05-22T09:45:59.739Z,-21698.43
2019-05-22T09:48:28.139Z,-21700.78
2019-05-22T09:50:57.266Z,-21716.83
2019-05-22T09:53:26.138Z,-21688.05
2019-05-22T09:55:54.778Z,-21724.99
2019-05-22T09:58:23.339Z,-21682.22
2019-05-22T10:00:52.116Z,-21680.84
2019-05-22T10:03:21.220Z,-21716.56
2019-05-22T10:05:49.829Z,-21672.25
2019-05-22T10:08:18.136Z,-21668.09
2019-05-22T10:10:47.264Z,-21684.71
2019-05-22T10:13:15.636Z,-21722.22
2019-05-22T10:15:44.227Z,-21668.09
2019-05-22T10:18:13.806Z,-21703.41
2019-05-22T10:20:42.146Z,-21741.43
2019-05-22T10:23:15.996Z,-21706.32
2019-05-22T10:25:41.973Z,-21697.46
2019-05-22T10:28:10.599Z,-21690.81
2019-05-22T10:30:38.944Z,-21711.43
2019-05-22T10:33:08.325Z,-21685.83
2019-05-22T10:35:37.417Z,-21734.66
2019-05-22T10:38:07.366Z,-21708.54
2019-05-22T10:40:36.587Z,-21694.69
2019-05-22T10:43:05.080Z,-21721.67
2019-05-22T10:45:34.532Z,-21704.66
2019-05-22T10:48:03.073Z,-21754.54
2019-05-22T10:50:32.597Z,-21688.32
2019-05-22T10:53:00.909Z,-21721.54
2019-05-22T10:55:30.196Z,-21734.11
2019-05-22T10:57:58.527Z,-21752.61
2019-05-22T11:00:26.968Z,-21694.55
2019-05-22T11:02:55.672Z,-21663.09
2019-05-22T11:05:24.582Z,-21730.38
2019-05-22T11:07:53.032Z,-21682.09
2019-05-22T11:10:23.028Z,-21739.64
2019-05-22T11:12:52.944Z,-21744.32
2019-05-22T11:15:22.594Z,-21703.83
2019-05-22T11:17:52.473Z,-21741.98
2019-05-22T11:20:21.941Z,-21739.22
2019-05-22T11:22:50.195Z,-21723.61
2019-05-22T11:25:22.404Z,-21753.86
2019-05-22T11:27:52.578Z,-21678.62
2019-05-22T11:30:21.226Z,-21703.55
2019-05-22T11:32:51.004Z,-21715.86
2019-05-22T11:35:21.418Z,-21708.67
2019-05-22T11:37:50.060Z,-21744.47
2019-05-22T11:40:18.825Z,-21731.35
2019-05-22T11:42:47.886Z,-21727.48
2019-05-22T11:45:17.140Z,-21766.68
2019-05-22T11:47:45.882Z,-21731.07
2019-05-22T11:50:16.615Z,-21797.54
2019-05-22T11:52:45.116Z,-21781.16
2019-05-22T11:55:14.194Z,-21802.08
2019-05-22T11:57:43.523Z,-21754.41
2019-05-22T12:00:13.636Z,-21797.54
2019-05-22T12:02:45.112Z,-21734.66
2019-05-22T12:05:17.660Z,-21782.81
2019-05-22T12:07:54.082Z,-21766.00
2019-05-22T12:10:24.425Z,-21776.34
2019-05-22T12:12:53.644Z,-21785.15
2019-05-22T12:15:25.182Z,-21757.03
2019-05-22T12:17:55.052Z,-21718.08
2019-05-22T12:20:26.284Z,-21748.89
2019-05-22T12:22:57.348Z,-21799.33
2019-05-22T12:25:26.348Z,-21850.30
2019-05-22T12:27:55.040Z,-21818.72
2019-05-22T12:30:26.106Z,-21803.19
2019-05-22T12:32:59.094Z,-21823.25
2019-05-22T12:35:28.287Z,-21806.76
2019-05-22T12:37:57.460Z,-21801.25
2019-05-22T12:40:29.753Z,-21855.52
2019-05-22T12:43:00.320Z,-21814.73
2019-05-22T12:45:32.018Z,-21840.29
2019-05-22T12:48:01.726Z,-21925.17
2019-05-22T12:50:31.382Z,-21919.57
2019-05-22T12:53:02.102Z,-21797.13
2019-05-22T12:55:33.135Z,-21891.68
2019-05-22T12:58:03.455Z,-21888.67
2019-05-22T13:00:33.605Z,-21847.29
2019-05-22T13:03:03.439Z,-21887.30
2019-05-22T13:05:34.087Z,-21842.21
2019-05-22T13:08:02.523Z,-21793.14
2019-05-22T13:10:31.773Z,-21872.79
2019-05-22T13:13:00.088Z,-21895.38
2019-05-22T13:15:30.749Z,-21882.79
2019-05-22T13:17:59.769Z,-21871.14
2019-05-22T13:20:42.593Z,-21913.29
2019-05-22T13:23:07.765Z,-21972.33
2019-05-22T13:25:38.904Z,-21969.34
2019-05-22T13:28:17.861Z,-21860.73
2019-05-22T13:30:56.533Z,-21914.24
2019-05-22T13:33:31.642Z,-21932.00
2019-05-22T13:36:00.349Z,-21889.63
2019-05-22T13:38:28.789Z,-22024.36
2019-05-22T13:40:57.576Z,-22043.61
2019-05-22T13:43:27.687Z,-22042.25
2019-05-22T13:45:58.055Z,-22066.21
2019-05-22T13:48:30.407Z,-22005.36
2019-05-22T13:51:00.128Z,-21996.54
2019-05-22T13:53:29.536Z,-22037.64
2019-05-22T13:56:01.252Z,-21931.31
2019-05-22T13:58:29.685Z,-21942.91
2019-05-22T14:00:58.178Z,-21919.02
2019-05-22T14:03:26.546Z,-21987.57
2019-05-22T14:05:55.781Z,-21927.48
2019-05-22T14:08:28.065Z,-21916.29
2019-05-22T14:10:56.437Z,-21998.43
2019-05-22T14:13:26.541Z,-22063.64
2019-05-22T14:15:57.182Z,-22072.02
2019-05-22T14:18:26.141Z,-22049.96
2019-05-22T14:20:54.801Z,-21994.77
2019-05-22T14:23:23.206Z,-21955.04
2019-05-22T14:25:52.211Z,-21872.38
2019-05-22T14:28:21.445Z,-21892.64
2019-05-22T14:30:49.730Z,-21937.59
2019-05-22T14:33:20.103Z,-21999.26
2019-05-22T14:35:52.476Z,-21936.77
2019-05-22T14:38:23.637Z,-21954.77
2019-05-22T14:40:52.115Z,-21917.38
2019-05-22T14:43:20.379Z,-22030.73
2019-05-22T14:45:49.684Z,-21994.91
2019-05-22T14:48:18.967Z,-22059.98
2019-05-22T14:50:49.422Z,-21969.20
2019-05-22T14:53:18.193Z,-21946.86
2019-05-22T14:55:47.087Z,-21944.41
2019-05-22T14:58:15.434Z,-21919.02
2019-05-22T15:00:45.748Z,-21947.54
2019-05-22T15:03:14.270Z,-21917.38
2019-05-22T15:05:42.572Z,-21948.36
2019-05-22T15:08:11.101Z,-22049.70
2019-05-22T15:10:39.811Z,-21970.70
2019-05-22T15:13:08.960Z,-21922.43
2019-05-22T15:15:40.545Z,-21904.40
2019-05-22T15:18:07.761Z,-21849.76
2019-05-22T15:20:53.516Z,-21856.48
2019-05-22T15:23:21.971Z,-21863.47
2019-05-22T15:25:51.843Z,-21882.79
2019-05-22T15:28:20.795Z,-21886.89
2019-05-22T15:30:49.687Z,-21863.33
2019-05-22T15:33:19.047Z,-21888.81
2019-05-22T15:35:48.782Z,-21888.67
2019-05-22T15:38:18.139Z,-21897.43
2019-05-22T15:40:46.774Z,-21883.75
2019-05-22T15:43:15.833Z,-21920.80
2019-05-22T15:45:44.311Z,-21881.96
2019-05-22T15:48:15.724Z,-21901.66
2019-05-22T15:50:57.820Z,-21864.84
2019-05-22T15:53:48.566Z,-21791.62
2019-05-22T15:56:17.694Z,-21914.24
2019-05-22T15:58:51.640Z,-21986.20
2019-05-22T16:01:21.926Z,-21968.39
2019-05-22T16:03:51.226Z,-21971.38
2019-05-22T16:06:21.856Z,-21985.25
2019-05-22T16:08:50.753Z,-22001.15
2019-05-22T16:11:20.265Z,-21949.45
2019-05-22T16:13:48.561Z,-21834.80
2019-05-22T16:16:20.266Z,-21841.80
2019-05-22T16:18:49.782Z,-21829.03
2019-05-22T16:21:18.687Z,-21811.71
2019-05-22T16:23:47.392Z,-21813.91
2019-05-22T16:26:16.713Z,-21811.30
2019-05-22T16:28:45.720Z,-21779.50
2019-05-22T16:31:14.710Z,-21815.42
2019-05-22T16:33:44.399Z,-21805.25
2019-05-22T16:36:14.258Z,-21820.10
2019-05-22T16:38:43.817Z,-21803.05
2019-05-22T16:41:12.638Z,-21804.84
2019-05-22T16:43:49.360Z,-21806.63
2019-05-22T16:46:14.909Z,-21796.44
2019-05-22T16:48:43.771Z,-21838.91
2019-05-22T16:51:15.389Z,-21830.95
2019-05-22T16:53:46.841Z,-21860.59
2019-05-22T16:56:15.584Z,-21844.54
2019-05-22T16:58:43.917Z,-21871.28
2019-05-22T17:01:12.335Z,-21851.95
2019-05-22T17:03:41.406Z,-21831.37
2019-05-22T17:06:09.760Z,-21796.17
2019-05-22T17:08:38.281Z,-21774.27
2019-05-22T17:11:07.275Z,-21808.14
2019-05-22T17:13:36.808Z,-21758.13
2019-05-22T17:16:06.734Z,-21804.56
2019-05-22T17:18:46.579Z,-21779.50
2019-05-22T17:21:06.662Z,-21795.75
2019-05-22T17:23:35.102Z,-21808.55
2019-05-22T17:26:04.395Z,-21767.10
2019-05-22T17:28:32.802Z,-21800.98
2019-05-22T17:31:01.411Z,-21775.64
2019-05-22T17:33:30.592Z,-21752.89
2019-05-22T17:36:00.370Z,-21779.50
2019-05-22T17:38:29.300Z,-21776.34
2019-05-22T17:40:59.737Z,-21781.71
2019-05-22T17:43:29.589Z,-21781.16
2019-05-22T17:45:58.399Z,-21790.52
2019-05-22T17:48:27.555Z,-21821.89
2019-05-22T17:50:56.756Z,-21805.53
2019-05-22T17:53:25.837Z,-21846.87
2019-05-22T17:55:54.622Z,-21800.70
2019-05-22T17:58:27.269Z,-21785.97
2019-05-22T18:00:55.985Z,-21769.72
2019-05-22T18:03:25.575Z,-21789.97
2019-05-22T18:05:53.924Z,-21813.09
2019-05-22T18:08:23.467Z,-21792.73
2019-05-22T18:10:52.112Z,-21799.46
2019-05-22T18:13:21.235Z,-21831.23
2019-05-22T18:15:51.140Z,-21812.26
2019-05-22T18:18:24.468Z,-21799.33
2019-05-22T18:20:57.268Z,-21816.66
2019-05-22T18:23:25.537Z,-21825.73
2019-05-22T18:25:53.935Z,-21816.94
2019-05-22T18:28:22.342Z,-21813.09
2019-05-22T18:30:50.707Z,-21810.75
2019-05-22T18:33:23.382Z,-21833.15
2019-05-22T18:35:56.721Z,-21846.05
2019-05-22T18:38:25.127Z,-21828.34
2019-05-22T18:40:53.499Z,-21805.53
2019-05-22T18:43:23.106Z,-21826.42
2019-05-22T18:45:51.844Z,-21840.29
2019-05-22T18:48:20.682Z,-21843.72
2019-05-22T18:50:48.931Z,-21799.88
2019-05-22T18:53:17.394Z,-21821.61
2019-05-22T18:55:45.733Z,-21818.59
2019-05-22T18:58:14.148Z,-21831.37
2019-05-22T19:00:42.522Z,-21841.11
2019-05-22T19:03:11.315Z,-21847.84
2019-05-22T19:05:39.634Z,-21821.06
2019-05-22T19:08:07.895Z,-21804.29
2019-05-22T19:10:37.344Z,-21841.66
2019-05-22T19:13:05.680Z,-21825.04
2019-05-22T19:15:34.012Z,-21813.50
2019-05-22T19:18:02.432Z,-21816.11
2019-05-22T19:20:30.811Z,-21812.81
2019-05-22T19:23:01.597Z,-21794.38
2019-05-22T19:25:45.984Z,-21812.67
2019-05-22T19:28:43.412Z,-21787.35
2019-05-22T19:31:05.598Z,-21810.61
2019-05-22T19:33:33.855Z,-21800.29
2019-05-22T19:36:02.230Z,-21803.05
2019-05-22T19:38:30.597Z,-21801.25
2019-05-22T19:40:59.259Z,-21816.25
2019-05-22T19:43:28.204Z,-21802.91
2019-05-22T19:45:56.615Z,-21823.12
2019-05-22T19:48:25.517Z,-21801.94
2019-05-22T19:50:54.268Z,-21793.82
2019-05-22T19:53:22.907Z,-21802.22
2019-05-22T19:55:51.667Z,-21794.24
2019-05-22T19:58:21.949Z,-21790.25
2019-05-22T20:00:50.892Z,-21805.38
2019-05-22T20:03:19.895Z,-21794.10
2019-05-22T20:05:48.667Z,-21791.90
2019-05-22T20:08:17.055Z,-21751.93
2019-05-22T20:10:45.416Z,-21769.03
2019-05-22T20:13:13.860Z,-21784.32
2019-05-22T20:15:42.515Z,-21777.71
2019-05-22T20:18:11.746Z,-21788.32
2019-05-22T20:20:40.664Z,-21773.02
2019-05-22T20:23:09.689Z,-21721.12
2019-05-22T20:25:38.157Z,-21762.00
2019-05-22T20:28:06.976Z,-21754.54
2019-05-22T20:30:35.850Z,-21780.88
2019-05-22T20:33:04.148Z,-21774.96
2019-05-22T20:35:32.532Z,-21769.30
2019-05-22T20:38:01.828Z,-21735.49
2019-05-22T20:40:30.429Z,-21729.96
2019-05-22T20:42:59.564Z,-21764.89
2019-05-22T20:45:29.699Z,-21757.99
2019-05-22T20:48:09.584Z,-21761.58
2019-05-22T20:50:38.201Z,-21704.38
2019-05-22T20:53:08.187Z,-21748.34
2019-05-22T20:55:38.508Z,-21750.68
2019-05-22T20:58:07.819Z,-21684.71
2019-05-22T21:00:36.594Z,-21696.63
2019-05-22T21:03:06.121Z,-21688.32
2019-05-22T21:05:35.811Z,-21694.41
2019-05-22T21:08:08.026Z,-21720.43
2019-05-22T21:10:36.737Z,-21680.28
2019-05-22T21:13:05.758Z,-21721.81
2019-05-22T21:15:35.160Z,-21743.22
2019-05-22T21:18:05.094Z,-21755.23
2019-05-22T21:20:33.908Z,-21745.43
2019-05-22T21:23:04.062Z,-21675.57
2019-05-22T21:25:33.520Z,-21657.55
2019-05-22T21:28:01.869Z,-21694.55
2019-05-22T21:30:30.248Z,-21721.54
2019-05-22T21:32:58.542Z,-21753.44
2019-05-22T21:35:27.287Z,-21695.93
2019-05-22T21:37:56.686Z,-21704.38
2019-05-22T21:40:25.131Z,-21730.65
2019-05-22T21:42:54.152Z,-21723.75
2019-05-22T21:45:22.798Z,-21739.36
2019-05-22T21:47:51.487Z,-21721.67
2019-05-22T21:50:20.320Z,-21736.87
2019-05-22T21:52:48.809Z,-21760.75
2019-05-22T21:55:18.297Z,-21729.13
2019-05-22T21:57:46.749Z,-21732.87
2019-05-22T22:00:40.616Z,-21727.48
2019-05-22T22:03:19.299Z,-21730.24
2019-05-22T22:05:48.205Z,-21726.09
2019-05-22T22:08:16.837Z,-21706.87
2019-05-22T22:10:45.126Z,-21718.63
2019-05-22T22:13:13.785Z,-21718.35
2019-05-22T22:15:43.806Z,-21722.91
2019-05-22T22:18:13.219Z,-21699.67
2019-05-22T22:20:42.969Z,-21706.32
2019-05-22T22:23:13.576Z,-21728.03
2019-05-22T22:25:42.598Z,-21713.10
2019-05-22T22:28:12.757Z,-21709.36
2019-05-22T22:30:45.641Z,-21673.36
2019-05-22T22:33:16.010Z,-21648.38
2019-05-22T22:35:44.843Z,-21718.50
2019-05-22T22:38:13.662Z,-21718.91
2019-05-22T22:40:44.030Z,-21704.38
2019-05-22T22:43:14.097Z,-21709.91
2019-05-22T22:45:48.092Z,-21713.10
2019-05-22T22:48:18.136Z,-21723.19
2019-05-22T22:50:47.814Z,-21729.13
2019-05-22T22:53:16.934Z,-21737.98
2019-05-22T22:55:45.257Z,-21703.00
2019-05-22T22:58:17.564Z,-21673.36
2019-05-22T23:00:46.722Z,-21720.70
2019-05-22T23:03:18.774Z,-21723.19
2019-05-22T23:05:48.690Z,-21703.55
2019-05-22T23:08:23.328Z,-21695.93
2019-05-22T23:10:52.839Z,-21694.69
2019-05-22T23:13:22.717Z,-21687.91
2019-05-22T23:15:51.863Z,-21685.13
2019-05-22T23:18:42.814Z,-21693.59
2019-05-22T23:21:11.712Z,-21712.40
2019-05-22T23:23:40.837Z,-21709.78
2019-05-22T23:26:09.256Z,-21712.40
2019-05-22T23:28:40.788Z,-21711.58
2019-05-22T23:31:09.724Z,-21713.51
2019-05-22T23:33:39.065Z,-21713.23
2019-05-22T23:36:08.791Z,-21718.50
2019-05-22T23:38:38.367Z,-21723.05
2019-05-22T23:41:07.824Z,-21723.75
2019-05-22T23:43:36.413Z,-21720.70
2019-05-22T23:46:06.404Z,-21712.13
2019-05-22T23:48:35.870Z,-21709.22
2019-05-22T23:51:06.035Z,-21723.47
2019-05-22T23:53:35.392Z,-21722.50
2019-05-22T23:56:04.618Z,-21722.64
2019-05-22T23:58:34.469Z,-21715.45
